sensor_id;sensor_type;location;lat;lon;timestamp;temperature;humidity
36552;DHT22;22559;54.176;12.102;2024-02-23T00:00:02;10.90;99.90
36552;DHT22;22559;54.176;12.102;2024-02-23T00:02:31;11.00;99.90
36552;DHT22;22559;54.176;12.102;2024-02-23T00:04:57;11.00;99.90
36552;DHT22;22559;54.176;12.102;2024-02-23T00:07:22;11.00;99.90
36552;DHT22;22559;54.176;12.102;2024-02-23T00:09:48;11.00;99.90
36552;DHT22;22559;54.176;12.102;2024-02-23T00:12:14;11.10;99.90
36552;DHT22;22559;54.176;12.102;2024-02-23T00:14:40;11.20;99.90
36552;DHT22;22559;54.176;12.102;2024-02-23T00:17:05;11.20;99.90
36552;DHT22;22559;54.176;12.102;2024-02-23T00:19:31;11.20;99.90
36552;DHT22;22559;54.176;12.102;2024-02-23T00:21:57;11.20;99.90
36552;DHT22;22559;54.176;12.102;2024-02-23T00:24:25;11.20;99.90
36552;DHT22;22559;54.176;12.102;2024-02-23T00:26:50;11.20;99.90
36552;DHT22;22559;54.176;12.102;2024-02-23T00:29:17;11.20;99.90
36552;DHT22;22559;54.176;12.102;2024-02-23T00:31:42;11.30;99.90
36552;DHT22;22559;54.176;12.102;2024-02-23T00:34:10;11.30;99.90
36552;DHT22;22559;54.176;12.102;2024-02-23T00:36:39;11.40;99.90
36552;DHT22;22559;54.176;12.102;2024-02-23T00:39:06;11.50;99.90
36552;DHT22;22559;54.176;12.102;2024-02-23T00:41:35;11.50;99.90
36552;DHT22;22559;54.176;12.102;2024-02-23T00:44:02;11.50;99.90
36552;DHT22;22559;54.176;12.102;2024-02-23T00:46:28;11.40;99.90
36552;DHT22;22559;54.176;12.102;2024-02-23T00:48:54;11.40;99.90
36552;DHT22;22559;54.176;12.102;2024-02-23T00:51:20;11.40;99.90
36552;DHT22;22559;54.176;12.102;2024-02-23T00:53:45;11.40;99.90
36552;DHT22;22559;54.176;12.102;2024-02-23T00:56:11;11.40;99.90
36552;DHT22;22559;54.176;12.102;2024-02-23T00:58:38;11.30;99.90
36552;DHT22;22559;54.176;12.102;2024-02-23T01:01:04;11.30;99.90
36552;DHT22;22559;54.176;12.102;2024-02-23T01:03:29;11.30;99.90
36552;DHT22;22559;54.176;12.102;2024-02-23T01:05:55;11.30;99.90
36552;DHT22;22559;54.176;12.102;2024-02-23T01:08:20;11.30;99.90
36552;DHT22;22559;54.176;12.102;2024-02-23T01:10:46;11.30;99.90
36552;DHT22;22559;54.176;12.102;2024-02-23T01:13:12;11.30;99.90
36552;DHT22;22559;54.176;12.102;2024-02-23T01:15:37;11.30;99.90
36552;DHT22;22559;54.176;12.102;2024-02-23T01:18:04;11.30;99.90
36552;DHT22;22559;54.176;12.102;2024-02-23T01:20:31;11.30;99.90
36552;DHT22;22559;54.176;12.102;2024-02-23T01:22:57;11.30;99.90
36552;DHT22;22559;54.176;12.102;2024-02-23T01:25:22;11.20;99.90
36552;DHT22;22559;54.176;12.102;2024-02-23T01:27:48;11.10;99.90
36552;DHT22;22559;54.176;12.102;2024-02-23T01:30:14;11.00;99.90
36552;DHT22;22559;54.176;12.102;2024-02-23T01:32:40;11.00;99.90
36552;DHT22;22559;54.176;12.102;2024-02-23T01:35:06;10.90;99.90
36552;DHT22;22559;54.176;12.102;2024-02-23T01:37:32;10.80;99.90
36552;DHT22;22559;54.176;12.102;2024-02-23T01:39:58;10.80;99.90
36552;DHT22;22559;54.176;12.102;2024-02-23T01:42:24;10.80;99.90
36552;DHT22;22559;54.176;12.102;2024-02-23T01:44:51;10.70;99.90
36552;DHT22;22559;54.176;12.102;2024-02-23T01:47:17;10.60;99.90
36552;DHT22;22559;54.176;12.102;2024-02-23T01:49:45;10.60;99.90
36552;DHT22;22559;54.176;12.102;2024-02-23T01:52:11;10.60;99.90
36552;DHT22;22559;54.176;12.102;2024-02-23T01:54:38;10.50;99.90
36552;DHT22;22559;54.176;12.102;2024-02-23T01:57:04;10.40;99.90
36552;DHT22;22559;54.176;12.102;2024-02-23T01:59:30;10.40;99.90
36552;DHT22;22559;54.176;12.102;2024-02-23T02:01:55;10.30;99.90
36552;DHT22;22559;54.176;12.102;2024-02-23T02:04:21;10.30;99.90
36552;DHT22;22559;54.176;12.102;2024-02-23T02:06:48;10.20;99.90
36552;DHT22;22559;54.176;12.102;2024-02-23T02:09:14;10.30;99.90
36552;DHT22;22559;54.176;12.102;2024-02-23T02:11:47;10.30;99.90
36552;DHT22;22559;54.176;12.102;2024-02-23T02:14:13;10.30;99.90
36552;DHT22;22559;54.176;12.102;2024-02-23T02:16:39;10.30;99.90
36552;DHT22;22559;54.176;12.102;2024-02-23T02:19:05;10.20;99.90
36552;DHT22;22559;54.176;12.102;2024-02-23T02:21:31;10.20;99.90
36552;DHT22;22559;54.176;12.102;2024-02-23T02:24:00;10.20;99.90
36552;DHT22;22559;54.176;12.102;2024-02-23T02:26:25;10.20;99.90
36552;DHT22;22559;54.176;12.102;2024-02-23T02:28:51;10.20;99.90
36552;DHT22;22559;54.176;12.102;2024-02-23T02:31:19;10.20;99.90
36552;DHT22;22559;54.176;12.102;2024-02-23T02:33:44;10.20;99.90
36552;DHT22;22559;54.176;12.102;2024-02-23T02:36:10;10.20;99.90
36552;DHT22;22559;54.176;12.102;2024-02-23T02:38:37;10.20;99.90
36552;DHT22;22559;54.176;12.102;2024-02-23T02:41:03;10.00;99.90
36552;DHT22;22559;54.176;12.102;2024-02-23T02:43:29;9.50;99.90
36552;DHT22;22559;54.176;12.102;2024-02-23T02:45:54;8.70;99.90
36552;DHT22;22559;54.176;12.102;2024-02-23T02:48:20;8.10;99.90
36552;DHT22;22559;54.176;12.102;2024-02-23T02:50:46;7.80;99.90
36552;DHT22;22559;54.176;12.102;2024-02-23T02:53:11;7.70;99.90
36552;DHT22;22559;54.176;12.102;2024-02-23T02:55:41;7.60;99.90
36552;DHT22;22559;54.176;12.102;2024-02-23T02:58:07;7.70;99.90
36552;DHT22;22559;54.176;12.102;2024-02-23T03:00:33;7.80;99.90
36552;DHT22;22559;54.176;12.102;2024-02-23T03:02:58;7.80;99.90
36552;DHT22;22559;54.176;12.102;2024-02-23T03:05:24;7.80;99.90
36552;DHT22;22559;54.176;12.102;2024-02-23T03:07:50;7.70;99.90
36552;DHT22;22559;54.176;12.102;2024-02-23T03:10:16;7.70;99.90
36552;DHT22;22559;54.176;12.102;2024-02-23T03:12:41;7.70;99.90
36552;DHT22;22559;54.176;12.102;2024-02-23T03:15:07;7.80;99.90
36552;DHT22;22559;54.176;12.102;2024-02-23T03:17:34;7.80;99.90
36552;DHT22;22559;54.176;12.102;2024-02-23T03:19:59;7.80;99.90
36552;DHT22;22559;54.176;12.102;2024-02-23T03:22:25;7.90;99.90
36552;DHT22;22559;54.176;12.102;2024-02-23T03:24:51;7.80;99.90
36552;DHT22;22559;54.176;12.102;2024-02-23T03:27:16;7.80;99.90
36552;DHT22;22559;54.176;12.102;2024-02-23T03:29:42;7.80;99.90
36552;DHT22;22559;54.176;12.102;2024-02-23T03:32:08;7.80;99.90
36552;DHT22;22559;54.176;12.102;2024-02-23T03:34:33;7.80;99.90
36552;DHT22;22559;54.176;12.102;2024-02-23T03:36:59;7.80;99.90
36552;DHT22;22559;54.176;12.102;2024-02-23T03:39:26;7.70;99.90
36552;DHT22;22559;54.176;12.102;2024-02-23T03:41:53;7.70;99.90
36552;DHT22;22559;54.176;12.102;2024-02-23T03:44:19;7.70;99.90
36552;DHT22;22559;54.176;12.102;2024-02-23T03:46:44;7.70;99.90
36552;DHT22;22559;54.176;12.102;2024-02-23T03:49:10;7.60;99.90
36552;DHT22;22559;54.176;12.102;2024-02-23T03:51:37;7.60;99.90
36552;DHT22;22559;54.176;12.102;2024-02-23T03:54:05;7.60;99.90
36552;DHT22;22559;54.176;12.102;2024-02-23T03:56:40;7.60;99.90
36552;DHT22;22559;54.176;12.102;2024-02-23T03:59:07;7.50;99.90
36552;DHT22;22559;54.176;12.102;2024-02-23T04:01:38;7.50;99.90
36552;DHT22;22559;54.176;12.102;2024-02-23T04:04:05;7.60;99.90
36552;DHT22;22559;54.176;12.102;2024-02-23T04:06:31;7.60;99.90
36552;DHT22;22559;54.176;12.102;2024-02-23T04:08:57;7.60;99.90
36552;DHT22;22559;54.176;12.102;2024-02-23T04:11:22;7.50;99.90
36552;DHT22;22559;54.176;12.102;2024-02-23T04:13:48;7.30;99.90
36552;DHT22;22559;54.176;12.102;2024-02-23T04:16:14;7.30;99.90
36552;DHT22;22559;54.176;12.102;2024-02-23T04:18:39;7.30;99.90
36552;DHT22;22559;54.176;12.102;2024-02-23T04:21:05;7.30;99.90
36552;DHT22;22559;54.176;12.102;2024-02-23T04:23:30;7.30;99.90
36552;DHT22;22559;54.176;12.102;2024-02-23T04:25:56;7.40;99.90
36552;DHT22;22559;54.176;12.102;2024-02-23T04:28:22;7.40;99.90
36552;DHT22;22559;54.176;12.102;2024-02-23T04:30:47;7.30;99.90
36552;DHT22;22559;54.176;12.102;2024-02-23T04:33:13;7.30;99.90
36552;DHT22;22559;54.176;12.102;2024-02-23T04:35:39;7.20;99.90
36552;DHT22;22559;54.176;12.102;2024-02-23T04:38:04;7.20;99.90
36552;DHT22;22559;54.176;12.102;2024-02-23T04:40:30;7.20;99.90
36552;DHT22;22559;54.176;12.102;2024-02-23T04:42:55;7.10;99.90
36552;DHT22;22559;54.176;12.102;2024-02-23T04:45:21;7.00;99.90
36552;DHT22;22559;54.176;12.102;2024-02-23T04:47:46;7.00;99.90
36552;DHT22;22559;54.176;12.102;2024-02-23T04:50:13;7.10;99.90
36552;DHT22;22559;54.176;12.102;2024-02-23T04:52:39;7.10;99.90
36552;DHT22;22559;54.176;12.102;2024-02-23T04:55:05;7.10;99.90
36552;DHT22;22559;54.176;12.102;2024-02-23T04:57:31;7.10;99.90
36552;DHT22;22559;54.176;12.102;2024-02-23T04:59:57;7.10;99.90
36552;DHT22;22559;54.176;12.102;2024-02-23T05:02:23;7.10;99.90
36552;DHT22;22559;54.176;12.102;2024-02-23T05:04:48;7.20;99.90
36552;DHT22;22559;54.176;12.102;2024-02-23T05:07:14;7.30;99.90
36552;DHT22;22559;54.176;12.102;2024-02-23T05:09:40;7.30;99.90
36552;DHT22;22559;54.176;12.102;2024-02-23T05:12:10;7.10;99.90
36552;DHT22;22559;54.176;12.102;2024-02-23T05:14:35;7.10;99.90
36552;DHT22;22559;54.176;12.102;2024-02-23T05:17:01;7.10;99.90
36552;DHT22;22559;54.176;12.102;2024-02-23T05:19:27;7.10;99.90
36552;DHT22;22559;54.176;12.102;2024-02-23T05:21:52;7.20;99.90
36552;DHT22;22559;54.176;12.102;2024-02-23T05:24:18;7.10;99.90
36552;DHT22;22559;54.176;12.102;2024-02-23T05:26:44;7.10;99.90
36552;DHT22;22559;54.176;12.102;2024-02-23T05:29:10;7.10;99.90
36552;DHT22;22559;54.176;12.102;2024-02-23T05:31:49;7.10;99.90
36552;DHT22;22559;54.176;12.102;2024-02-23T05:34:14;7.10;99.90
36552;DHT22;22559;54.176;12.102;2024-02-23T05:36:40;7.10;99.90
36552;DHT22;22559;54.176;12.102;2024-02-23T05:39:06;7.10;99.90
36552;DHT22;22559;54.176;12.102;2024-02-23T05:41:33;7.00;99.90
36552;DHT22;22559;54.176;12.102;2024-02-23T05:43:59;7.00;99.90
36552;DHT22;22559;54.176;12.102;2024-02-23T05:46:25;7.00;99.90
36552;DHT22;22559;54.176;12.102;2024-02-23T05:48:50;7.00;99.90
36552;DHT22;22559;54.176;12.102;2024-02-23T05:51:16;7.00;99.90
36552;DHT22;22559;54.176;12.102;2024-02-23T05:53:41;7.00;99.90
36552;DHT22;22559;54.176;12.102;2024-02-23T05:56:07;7.00;99.90
36552;DHT22;22559;54.176;12.102;2024-02-23T05:58:33;7.00;99.90
36552;DHT22;22559;54.176;12.102;2024-02-23T06:00:58;7.00;99.90
36552;DHT22;22559;54.176;12.102;2024-02-23T06:03:24;6.90;99.90
36552;DHT22;22559;54.176;12.102;2024-02-23T06:05:50;6.90;99.90
36552;DHT22;22559;54.176;12.102;2024-02-23T06:08:15;6.80;99.90
36552;DHT22;22559;54.176;12.102;2024-02-23T06:10:41;6.80;99.90
36552;DHT22;22559;54.176;12.102;2024-02-23T06:13:08;6.80;99.90
36552;DHT22;22559;54.176;12.102;2024-02-23T06:15:34;6.80;99.90
36552;DHT22;22559;54.176;12.102;2024-02-23T06:17:59;6.70;99.90
36552;DHT22;22559;54.176;12.102;2024-02-23T06:20:25;6.70;99.90
36552;DHT22;22559;54.176;12.102;2024-02-23T06:22:50;6.60;99.90
36552;DHT22;22559;54.176;12.102;2024-02-23T06:25:16;6.60;99.90
36552;DHT22;22559;54.176;12.102;2024-02-23T06:27:42;6.70;99.90
36552;DHT22;22559;54.176;12.102;2024-02-23T06:30:08;6.70;99.90
36552;DHT22;22559;54.176;12.102;2024-02-23T06:32:34;6.70;99.90
36552;DHT22;22559;54.176;12.102;2024-02-23T06:34:59;6.70;99.90
36552;DHT22;22559;54.176;12.102;2024-02-23T06:37:25;6.70;99.90
36552;DHT22;22559;54.176;12.102;2024-02-23T06:39:51;6.80;99.90
36552;DHT22;22559;54.176;12.102;2024-02-23T06:42:20;6.70;99.90
36552;DHT22;22559;54.176;12.102;2024-02-23T06:44:46;6.70;99.90
36552;DHT22;22559;54.176;12.102;2024-02-23T06:47:12;6.70;99.90
36552;DHT22;22559;54.176;12.102;2024-02-23T06:49:41;6.60;99.90
36552;DHT22;22559;54.176;12.102;2024-02-23T06:52:08;6.60;99.90
36552;DHT22;22559;54.176;12.102;2024-02-23T06:54:33;6.70;99.90
36552;DHT22;22559;54.176;12.102;2024-02-23T06:56:59;6.80;99.90
36552;DHT22;22559;54.176;12.102;2024-02-23T06:59:24;6.80;99.90
36552;DHT22;22559;54.176;12.102;2024-02-23T07:01:51;6.80;99.90
36552;DHT22;22559;54.176;12.102;2024-02-23T07:04:17;6.90;99.90
36552;DHT22;22559;54.176;12.102;2024-02-23T07:06:43;6.90;99.90
36552;DHT22;22559;54.176;12.102;2024-02-23T07:09:09;6.90;99.90
36552;DHT22;22559;54.176;12.102;2024-02-23T07:11:37;7.00;99.90
36552;DHT22;22559;54.176;12.102;2024-02-23T07:14:03;7.20;99.90
36552;DHT22;22559;54.176;12.102;2024-02-23T07:16:29;7.30;99.90
36552;DHT22;22559;54.176;12.102;2024-02-23T07:18:54;7.30;99.90
36552;DHT22;22559;54.176;12.102;2024-02-23T07:21:20;7.30;99.90
36552;DHT22;22559;54.176;12.102;2024-02-23T07:23:46;7.40;99.90
36552;DHT22;22559;54.176;12.102;2024-02-23T07:26:12;7.30;99.90
36552;DHT22;22559;54.176;12.102;2024-02-23T07:28:37;7.30;99.90
36552;DHT22;22559;54.176;12.102;2024-02-23T07:31:03;7.20;99.90
36552;DHT22;22559;54.176;12.102;2024-02-23T07:33:29;7.30;99.90
36552;DHT22;22559;54.176;12.102;2024-02-23T07:35:54;7.40;99.90
36552;DHT22;22559;54.176;12.102;2024-02-23T07:38:20;7.60;99.90
36552;DHT22;22559;54.176;12.102;2024-02-23T07:40:45;7.60;99.90
36552;DHT22;22559;54.176;12.102;2024-02-23T07:43:11;7.40;99.90
36552;DHT22;22559;54.176;12.102;2024-02-23T07:45:37;7.40;99.90
36552;DHT22;22559;54.176;12.102;2024-02-23T07:48:04;7.30;99.90
36552;DHT22;22559;54.176;12.102;2024-02-23T07:50:29;7.40;99.90
36552;DHT22;22559;54.176;12.102;2024-02-23T07:52:55;7.50;99.90
36552;DHT22;22559;54.176;12.102;2024-02-23T07:55:21;7.70;99.90
36552;DHT22;22559;54.176;12.102;2024-02-23T07:57:47;7.90;99.90
36552;DHT22;22559;54.176;12.102;2024-02-23T08:00:13;8.00;99.90
36552;DHT22;22559;54.176;12.102;2024-02-23T08:02:39;8.00;99.90
36552;DHT22;22559;54.176;12.102;2024-02-23T08:05:06;8.20;99.90
36552;DHT22;22559;54.176;12.102;2024-02-23T08:07:32;8.20;99.90
36552;DHT22;22559;54.176;12.102;2024-02-23T08:09:58;8.20;99.90
36552;DHT22;22559;54.176;12.102;2024-02-23T08:12:24;8.20;99.90
36552;DHT22;22559;54.176;12.102;2024-02-23T08:14:49;8.10;99.90
36552;DHT22;22559;54.176;12.102;2024-02-23T08:17:18;8.30;99.90
36552;DHT22;22559;54.176;12.102;2024-02-23T08:19:44;8.40;99.90
36552;DHT22;22559;54.176;12.102;2024-02-23T08:22:09;8.30;99.90
36552;DHT22;22559;54.176;12.102;2024-02-23T08:24:35;8.30;99.90
36552;DHT22;22559;54.176;12.102;2024-02-23T08:27:01;8.30;99.90
36552;DHT22;22559;54.176;12.102;2024-02-23T08:29:28;8.20;99.90
36552;DHT22;22559;54.176;12.102;2024-02-23T08:31:54;8.30;99.90
36552;DHT22;22559;54.176;12.102;2024-02-23T08:34:19;8.30;99.90
36552;DHT22;22559;54.176;12.102;2024-02-23T08:36:45;8.50;99.90
36552;DHT22;22559;54.176;12.102;2024-02-23T08:39:11;8.80;99.90
36552;DHT22;22559;54.176;12.102;2024-02-23T08:41:36;8.90;99.90
36552;DHT22;22559;54.176;12.102;2024-02-23T08:44:02;8.80;99.90
36552;DHT22;22559;54.176;12.102;2024-02-23T08:46:28;8.50;99.90
36552;DHT22;22559;54.176;12.102;2024-02-23T08:48:53;8.30;99.90
36552;DHT22;22559;54.176;12.102;2024-02-23T08:51:19;8.10;99.90
36552;DHT22;22559;54.176;12.102;2024-02-23T08:53:45;8.10;99.90
36552;DHT22;22559;54.176;12.102;2024-02-23T08:56:11;8.30;99.90
36552;DHT22;22559;54.176;12.102;2024-02-23T08:58:37;8.60;99.90
36552;DHT22;22559;54.176;12.102;2024-02-23T09:01:03;9.00;99.90
36552;DHT22;22559;54.176;12.102;2024-02-23T09:03:30;9.00;99.90
36552;DHT22;22559;54.176;12.102;2024-02-23T09:05:57;9.20;99.90
36552;DHT22;22559;54.176;12.102;2024-02-23T09:08:22;9.40;99.90
36552;DHT22;22559;54.176;12.102;2024-02-23T09:10:48;9.30;99.90
36552;DHT22;22559;54.176;12.102;2024-02-23T09:13:14;9.60;99.90
36552;DHT22;22559;54.176;12.102;2024-02-23T09:15:40;9.90;99.90
36552;DHT22;22559;54.176;12.102;2024-02-23T09:18:07;9.90;99.90
36552;DHT22;22559;54.176;12.102;2024-02-23T09:20:33;9.50;99.90
36552;DHT22;22559;54.176;12.102;2024-02-23T09:22:59;9.50;99.90
36552;DHT22;22559;54.176;12.102;2024-02-23T09:25:24;9.50;99.90
36552;DHT22;22559;54.176;12.102;2024-02-23T09:27:50;9.10;99.90
36552;DHT22;22559;54.176;12.102;2024-02-23T09:30:16;8.70;99.90
36552;DHT22;22559;54.176;12.102;2024-02-23T09:32:41;8.60;99.90
36552;DHT22;22559;54.176;12.102;2024-02-23T09:35:08;8.50;99.90
36552;DHT22;22559;54.176;12.102;2024-02-23T09:37:33;8.40;99.90
36552;DHT22;22559;54.176;12.102;2024-02-23T09:39:59;8.40;99.90
36552;DHT22;22559;54.176;12.102;2024-02-23T09:42:25;9.10;99.90
36552;DHT22;22559;54.176;12.102;2024-02-23T09:44:59;9.40;99.90
36552;DHT22;22559;54.176;12.102;2024-02-23T09:47:28;9.60;99.90
36552;DHT22;22559;54.176;12.102;2024-02-23T09:49:54;9.70;99.90
36552;DHT22;22559;54.176;12.102;2024-02-23T09:52:21;10.40;99.90
36552;DHT22;22559;54.176;12.102;2024-02-23T09:54:48;10.60;99.90
36552;DHT22;22559;54.176;12.102;2024-02-23T09:57:15;11.10;99.90
36552;DHT22;22559;54.176;12.102;2024-02-23T09:59:41;11.30;99.90
36552;DHT22;22559;54.176;12.102;2024-02-23T10:02:08;11.20;99.90
36552;DHT22;22559;54.176;12.102;2024-02-23T10:04:38;10.40;99.90
36552;DHT22;22559;54.176;12.102;2024-02-23T10:07:05;10.20;99.90
36552;DHT22;22559;54.176;12.102;2024-02-23T10:09:31;10.40;99.90
36552;DHT22;22559;54.176;12.102;2024-02-23T10:11:57;10.30;99.90
36552;DHT22;22559;54.176;12.102;2024-02-23T10:14:23;10.70;99.90
36552;DHT22;22559;54.176;12.102;2024-02-23T10:16:48;10.90;99.90
36552;DHT22;22559;54.176;12.102;2024-02-23T10:19:22;10.50;99.90
36552;DHT22;22559;54.176;12.102;2024-02-23T10:21:48;10.10;99.90
36552;DHT22;22559;54.176;12.102;2024-02-23T10:24:17;10.50;99.90
36552;DHT22;22559;54.176;12.102;2024-02-23T10:26:44;10.90;99.90
36552;DHT22;22559;54.176;12.102;2024-02-23T10:29:10;11.40;99.90
36552;DHT22;22559;54.176;12.102;2024-02-23T10:31:36;11.10;99.90
36552;DHT22;22559;54.176;12.102;2024-02-23T10:34:07;10.90;99.90
36552;DHT22;22559;54.176;12.102;2024-02-23T10:36:41;10.70;99.90
36552;DHT22;22559;54.176;12.102;2024-02-23T10:39:16;10.70;99.90
36552;DHT22;22559;54.176;12.102;2024-02-23T10:41:51;10.50;99.90
36552;DHT22;22559;54.176;12.102;2024-02-23T10:44:21;10.40;99.90
36552;DHT22;22559;54.176;12.102;2024-02-23T10:46:47;10.30;99.90
36552;DHT22;22559;54.176;12.102;2024-02-23T10:49:15;10.30;99.90
36552;DHT22;22559;54.176;12.102;2024-02-23T10:51:42;10.40;99.90
36552;DHT22;22559;54.176;12.102;2024-02-23T10:54:09;10.30;99.90
36552;DHT22;22559;54.176;12.102;2024-02-23T10:56:35;10.30;99.90
36552;DHT22;22559;54.176;12.102;2024-02-23T10:59:01;10.90;99.90
36552;DHT22;22559;54.176;12.102;2024-02-23T11:01:27;11.40;99.90
36552;DHT22;22559;54.176;12.102;2024-02-23T11:03:53;11.70;99.90
36552;DHT22;22559;54.176;12.102;2024-02-23T11:06:20;11.10;99.90
36552;DHT22;22559;54.176;12.102;2024-02-23T11:08:48;10.40;99.90
36552;DHT22;22559;54.176;12.102;2024-02-23T11:11:18;10.40;99.90
36552;DHT22;22559;54.176;12.102;2024-02-23T11:13:44;10.30;99.90
36552;DHT22;22559;54.176;12.102;2024-02-23T11:16:21;10.30;99.90
36552;DHT22;22559;54.176;12.102;2024-02-23T11:18:48;10.20;99.90
36552;DHT22;22559;54.176;12.102;2024-02-23T11:21:13;9.90;99.90
36552;DHT22;22559;54.176;12.102;2024-02-23T11:23:43;10.40;99.90
36552;DHT22;22559;54.176;12.102;2024-02-23T11:26:12;10.60;99.90
36552;DHT22;22559;54.176;12.102;2024-02-23T11:28:51;10.80;99.90
36552;DHT22;22559;54.176;12.102;2024-02-23T11:31:23;10.80;99.90
36552;DHT22;22559;54.176;12.102;2024-02-23T11:33:53;10.70;99.90
36552;DHT22;22559;54.176;12.102;2024-02-23T11:36:24;10.40;99.90
36552;DHT22;22559;54.176;12.102;2024-02-23T11:38:53;10.10;99.90
36552;DHT22;22559;54.176;12.102;2024-02-23T11:41:23;10.20;99.90
36552;DHT22;22559;54.176;12.102;2024-02-23T11:43:53;10.50;99.90
36552;DHT22;22559;54.176;12.102;2024-02-23T11:46:19;10.90;99.90
36552;DHT22;22559;54.176;12.102;2024-02-23T11:48:45;11.40;99.90
36552;DHT22;22559;54.176;12.102;2024-02-23T11:51:19;11.50;99.90
36552;DHT22;22559;54.176;12.102;2024-02-23T11:53:46;11.70;99.90
36552;DHT22;22559;54.176;12.102;2024-02-23T11:56:13;11.90;99.90
36552;DHT22;22559;54.176;12.102;2024-02-23T11:58:40;12.30;99.90
36552;DHT22;22559;54.176;12.102;2024-02-23T12:01:06;12.20;99.90
36552;DHT22;22559;54.176;12.102;2024-02-23T12:03:32;11.70;99.90
36552;DHT22;22559;54.176;12.102;2024-02-23T12:06:02;11.70;99.90
36552;DHT22;22559;54.176;12.102;2024-02-23T12:08:30;11.00;99.90
36552;DHT22;22559;54.176;12.102;2024-02-23T12:10:58;11.20;99.90
36552;DHT22;22559;54.176;12.102;2024-02-23T12:13:26;11.60;99.90
36552;DHT22;22559;54.176;12.102;2024-02-23T12:15:54;12.30;99.90
36552;DHT22;22559;54.176;12.102;2024-02-23T12:18:24;12.40;99.90
36552;DHT22;22559;54.176;12.102;2024-02-23T12:20:53;12.60;99.90
36552;DHT22;22559;54.176;12.102;2024-02-23T12:23:18;12.60;99.90
36552;DHT22;22559;54.176;12.102;2024-02-23T12:25:57;12.70;99.90
36552;DHT22;22559;54.176;12.102;2024-02-23T12:28:23;12.80;99.90
36552;DHT22;22559;54.176;12.102;2024-02-23T12:31:05;12.80;99.90
36552;DHT22;22559;54.176;12.102;2024-02-23T12:33:32;12.50;99.90
36552;DHT22;22559;54.176;12.102;2024-02-23T12:36:02;12.40;99.90
36552;DHT22;22559;54.176;12.102;2024-02-23T12:38:28;12.60;99.90
36552;DHT22;22559;54.176;12.102;2024-02-23T12:40:54;12.20;99.90
36552;DHT22;22559;54.176;12.102;2024-02-23T12:43:19;11.60;99.90
36552;DHT22;22559;54.176;12.102;2024-02-23T12:45:47;11.80;99.90
36552;DHT22;22559;54.176;12.102;2024-02-23T12:48:17;12.50;99.90
36552;DHT22;22559;54.176;12.102;2024-02-23T12:50:44;12.80;99.90
36552;DHT22;22559;54.176;12.102;2024-02-23T12:58:31;13.00;99.90
36552;DHT22;22559;54.176;12.102;2024-02-23T13:00:57;12.90;99.90
36552;DHT22;22559;54.176;12.102;2024-02-23T13:03:24;13.00;99.90
36552;DHT22;22559;54.176;12.102;2024-02-23T13:05:50;13.10;99.90
36552;DHT22;22559;54.176;12.102;2024-02-23T13:08:16;12.90;99.90
36552;DHT22;22559;54.176;12.102;2024-02-23T13:10:43;12.90;99.90
36552;DHT22;22559;54.176;12.102;2024-02-23T13:13:09;13.00;99.90
36552;DHT22;22559;54.176;12.102;2024-02-23T13:15:35;12.90;99.90
36552;DHT22;22559;54.176;12.102;2024-02-23T13:18:03;13.00;99.90
36552;DHT22;22559;54.176;12.102;2024-02-23T13:20:29;13.20;99.90
36552;DHT22;22559;54.176;12.102;2024-02-23T13:22:55;12.50;99.90
36552;DHT22;22559;54.176;12.102;2024-02-23T13:25:21;11.80;99.90
36552;DHT22;22559;54.176;12.102;2024-02-23T13:27:47;11.70;99.90
36552;DHT22;22559;54.176;12.102;2024-02-23T13:30:13;12.10;99.90
36552;DHT22;22559;54.176;12.102;2024-02-23T13:32:39;12.60;99.90
36552;DHT22;22559;54.176;12.102;2024-02-23T13:35:05;12.70;99.90
36552;DHT22;22559;54.176;12.102;2024-02-23T13:37:32;11.90;99.90
36552;DHT22;22559;54.176;12.102;2024-02-23T13:39:58;11.60;99.90
36552;DHT22;22559;54.176;12.102;2024-02-23T13:42:23;11.90;99.90
36552;DHT22;22559;54.176;12.102;2024-02-23T13:44:49;12.40;99.90
36552;DHT22;22559;54.176;12.102;2024-02-23T13:47:15;12.50;99.90
36552;DHT22;22559;54.176;12.102;2024-02-23T13:49:40;12.70;99.90
36552;DHT22;22559;54.176;12.102;2024-02-23T13:52:06;12.90;99.90
36552;DHT22;22559;54.176;12.102;2024-02-23T13:54:32;12.60;99.90
36552;DHT22;22559;54.176;12.102;2024-02-23T13:56:57;12.50;99.90
36552;DHT22;22559;54.176;12.102;2024-02-23T13:59:23;12.80;99.90
36552;DHT22;22559;54.176;12.102;2024-02-23T14:01:49;13.10;99.90
36552;DHT22;22559;54.176;12.102;2024-02-23T14:04:14;13.00;99.90
36552;DHT22;22559;54.176;12.102;2024-02-23T14:06:40;12.70;99.90
36552;DHT22;22559;54.176;12.102;2024-02-23T14:09:05;12.70;99.90
36552;DHT22;22559;54.176;12.102;2024-02-23T14:11:31;12.40;99.90
36552;DHT22;22559;54.176;12.102;2024-02-23T14:13:57;12.10;99.90
36552;DHT22;22559;54.176;12.102;2024-02-23T14:16:23;11.70;99.90
36552;DHT22;22559;54.176;12.102;2024-02-23T14:18:49;11.30;99.90
36552;DHT22;22559;54.176;12.102;2024-02-23T14:21:15;11.10;99.90
36552;DHT22;22559;54.176;12.102;2024-02-23T14:23:42;11.00;99.90
36552;DHT22;22559;54.176;12.102;2024-02-23T14:26:08;10.80;99.90
36552;DHT22;22559;54.176;12.102;2024-02-23T14:28:34;10.70;99.90
36552;DHT22;22559;54.176;12.102;2024-02-23T14:30:59;10.70;99.90
36552;DHT22;22559;54.176;12.102;2024-02-23T14:33:25;10.60;99.90
36552;DHT22;22559;54.176;12.102;2024-02-23T14:35:51;10.40;99.90
36552;DHT22;22559;54.176;12.102;2024-02-23T14:38:16;10.40;99.90
36552;DHT22;22559;54.176;12.102;2024-02-23T14:40:42;10.40;99.90
36552;DHT22;22559;54.176;12.102;2024-02-23T14:43:08;10.30;99.90
36552;DHT22;22559;54.176;12.102;2024-02-23T14:45:35;10.30;99.90
36552;DHT22;22559;54.176;12.102;2024-02-23T14:48:01;10.40;99.90
36552;DHT22;22559;54.176;12.102;2024-02-23T14:50:27;10.50;99.90
36552;DHT22;22559;54.176;12.102;2024-02-23T14:52:52;10.50;99.90
36552;DHT22;22559;54.176;12.102;2024-02-23T14:55:19;10.40;99.90
36552;DHT22;22559;54.176;12.102;2024-02-23T14:57:45;10.30;99.90
36552;DHT22;22559;54.176;12.102;2024-02-23T15:00:11;10.30;99.90
36552;DHT22;22559;54.176;12.102;2024-02-23T15:02:37;10.30;99.90
36552;DHT22;22559;54.176;12.102;2024-02-23T15:05:05;10.30;99.90
36552;DHT22;22559;54.176;12.102;2024-02-23T15:07:32;10.20;99.90
36552;DHT22;22559;54.176;12.102;2024-02-23T15:09:57;10.20;99.90
36552;DHT22;22559;54.176;12.102;2024-02-23T15:12:23;10.10;99.90
36552;DHT22;22559;54.176;12.102;2024-02-23T15:14:53;10.10;99.90
36552;DHT22;22559;54.176;12.102;2024-02-23T15:17:19;10.20;99.90
36552;DHT22;22559;54.176;12.102;2024-02-23T15:19:44;10.10;99.90
36552;DHT22;22559;54.176;12.102;2024-02-23T15:22:10;10.10;99.90